Weather at Tallaght University Hospital Heliport

Public forecast

Using degrees Celsius for public forecast. Weather courtesy of forecast.io.

Closest aviation weather report (METAR) to Tallaght University Hospital Heliport

Closest report is Casement Air Base, 2.8 nm (5.1 km) WNW.

2024/07/21 04:00 (retrieved 22 minutes ago)

EIME 210400Z 22011KT 9999 FEW010 BKN180 11/10 Q1009

Closest aviation forecast (TAF) to Tallaght University Hospital Heliport

Forecast is more than 12 hours old.

Closest forecast is RAF Waddington, 210.4 nm (389.7 km) E.

2024/07/19 18:36 (retrieved 1 day ago)

TAF TAF EGXW 191830Z 1918/2012 CNL